createdAt,value
2019-04-03T00:01:28.281Z,6.30
2019-04-03T00:03:58.234Z,6.57
2019-04-03T00:06:28.372Z,6.77
2019-04-03T00:08:58.482Z,6.67
2019-04-03T00:11:28.340Z,6.73
2019-04-03T00:13:58.074Z,6.03
2019-04-03T00:16:28.038Z,7.07
2019-04-03T00:18:58.874Z,7.30
2019-04-03T00:21:28.828Z,6.90
2019-04-03T00:24:03.972Z,6.30
2019-04-03T00:26:33.790Z,6.90
2019-04-03T00:29:04.569Z,6.07
2019-04-03T00:31:35.278Z,6.10
2019-04-03T00:34:04.963Z,6.67
2019-04-03T00:36:34.691Z,7.67
2019-04-03T00:39:07.378Z,7.63
2019-04-03T00:41:38.322Z,6.53
2019-04-03T00:44:10.764Z,7.13
2019-04-03T00:46:41.652Z,6.20
2019-04-03T00:49:13.710Z,6.03
2019-04-03T00:51:43.806Z,6.20
2019-04-03T00:54:20.559Z,6.67
2019-04-03T00:56:50.522Z,6.67
2019-04-03T00:59:21.548Z,7.00
2019-04-03T01:01:52.522Z,6.50
2019-04-03T01:04:22.386Z,6.53
2019-04-03T01:06:52.150Z,7.53
2019-04-03T01:09:22.146Z,7.10
2019-04-03T01:11:58.789Z,7.70
2019-04-03T01:14:31.337Z,6.73
2019-04-03T01:17:03.566Z,7.20
2019-04-03T01:19:36.112Z,7.10
2019-04-03T01:22:07.794Z,7.70
2019-04-03T01:24:38.818Z,7.00
2019-04-03T01:27:11.168Z,7.60
2019-04-03T01:29:42.253Z,6.47
2019-04-03T01:32:11.819Z,7.20
2019-04-03T01:34:42.898Z,7.80
2019-04-03T01:37:12.727Z,8.07
2019-04-03T01:39:43.392Z,7.90
2019-04-03T01:42:13.356Z,7.33
2019-04-03T01:44:43.179Z,7.10
2019-04-03T01:47:13.839Z,7.67
2019-04-03T01:49:43.828Z,7.83
2019-04-03T01:52:13.899Z,7.30
2019-04-03T01:54:44.620Z,8.77
2019-04-03T01:57:14.596Z,6.40
2019-04-03T01:59:44.455Z,7.17
2019-04-03T02:02:16.194Z,7.37
2019-04-03T02:04:46.188Z,6.80
2019-04-03T02:07:16.267Z,7.97
2019-04-03T02:09:47.013Z,7.60
2019-04-03T02:12:19.289Z,7.07
2019-04-03T02:14:51.195Z,7.27
2019-04-03T02:17:21.831Z,7.67
2019-04-03T02:19:53.022Z,8.30
2019-04-03T02:22:23.129Z,8.60
2019-04-03T02:24:53.656Z,8.10
2019-04-03T02:27:24.676Z,8.10
2019-04-03T02:29:56.523Z,8.20
2019-04-03T02:32:26.224Z,8.57
2019-04-03T02:34:56.863Z,8.00
2019-04-03T02:37:26.667Z,7.70
2019-04-03T02:39:59.064Z,7.60
2019-04-03T02:42:28.135Z,7.07
2019-04-03T02:44:57.919Z,6.50
2019-04-03T02:47:27.895Z,7.10
2019-04-03T02:49:57.983Z,7.13
2019-04-03T02:52:38.953Z,7.70
2019-04-03T02:55:09.042Z,7.80
2019-04-03T02:57:39.139Z,8.67
2019-04-03T03:00:09.604Z,8.83
2019-04-03T03:02:39.902Z,8.43
2019-04-03T03:05:09.705Z,9.57
2019-04-03T03:07:45.240Z,10.00
2019-04-03T03:10:20.890Z,9.63
2019-04-03T03:12:52.045Z,9.13
2019-04-03T03:15:23.453Z,10.07
2019-04-03T03:18:02.706Z,9.33
2019-04-03T03:20:39.023Z,7.37
2019-04-03T03:23:15.659Z,7.70
2019-04-03T03:25:49.521Z,6.43
2019-04-03T03:28:21.036Z,7.27
2019-04-03T03:30:59.536Z,7.00
2019-04-03T03:33:33.198Z,7.27
2019-04-03T03:35:57.102Z,6.67
2019-04-03T03:38:29.918Z,7.77
2019-04-03T03:41:01.039Z,8.00
2019-04-03T03:43:31.428Z,9.57
2019-04-03T03:46:07.222Z,9.80
2019-04-03T03:48:42.512Z,9.77
2019-04-03T03:51:19.004Z,10.20
2019-04-03T03:53:50.899Z,10.37
2019-04-03T03:56:22.966Z,9.47
2019-04-03T03:58:55.489Z,9.20
2019-04-03T04:01:25.837Z,8.50
2019-04-03T04:03:55.895Z,8.43
2019-04-03T04:06:35.032Z,8.80
2019-04-03T04:09:09.337Z,9.37
2019-04-03T04:11:41.093Z,8.90
2019-04-03T04:14:12.636Z,8.50
2019-04-03T04:16:43.711Z,7.40
2019-04-03T04:19:14.824Z,8.97
2019-04-03T04:21:46.029Z,8.40
2019-04-03T04:24:22.162Z,8.40
2019-04-03T04:26:52.220Z,8.03
2019-04-03T04:29:23.195Z,7.83
2019-04-03T04:31:56.315Z,7.43
2019-04-03T04:34:27.372Z,8.50
2019-04-03T04:37:02.055Z,8.00
2019-04-03T04:39:31.608Z,8.03
2019-04-03T04:42:03.482Z,8.20
2019-04-03T04:44:38.950Z,8.03
2019-04-03T04:47:11.563Z,8.07
2019-04-03T04:49:49.180Z,7.83
2019-04-03T04:52:23.035Z,8.70
2019-04-03T04:54:54.803Z,7.20
2019-04-03T04:57:24.789Z,8.67
2019-04-03T04:59:54.635Z,8.73
2019-04-03T05:02:24.319Z,9.17
2019-04-03T05:04:55.794Z,11.10
2019-04-03T05:07:30.306Z,10.30
2019-04-03T05:10:00.483Z,8.83
2019-04-03T05:12:30.783Z,9.27
2019-04-03T05:15:02.202Z,10.50
2019-04-03T05:17:33.187Z,9.90
2019-04-03T05:20:07.444Z,9.30
2019-04-03T05:22:37.289Z,9.10
2019-04-03T05:25:07.425Z,8.67
2019-04-03T05:27:37.580Z,9.40
2019-04-03T05:30:07.894Z,8.90
2019-04-03T05:32:40.709Z,8.63
2019-04-03T05:35:09.711Z,9.40
2019-04-03T05:37:40.530Z,9.00
2019-04-03T05:40:11.274Z,9.57
2019-04-03T05:42:41.615Z,9.60
2019-04-03T05:45:11.703Z,11.30
2019-04-03T05:47:41.552Z,11.57
2019-04-03T05:50:11.410Z,11.77
2019-04-03T05:52:42.187Z,10.73
2019-04-03T05:55:13.393Z,11.63
2019-04-03T05:57:45.729Z,11.00
2019-04-03T06:00:15.147Z,11.57
2019-04-03T06:02:45.180Z,11.93
2019-04-03T06:05:18.516Z,9.60
2019-04-03T06:07:47.040Z,10.00
2019-04-03T06:10:19.392Z,9.80
2019-04-03T06:12:50.430Z,9.27
2019-04-03T06:15:22.061Z,9.00
2019-04-03T06:17:55.751Z,9.43
2019-04-03T06:20:26.485Z,8.87
2019-04-03T06:22:56.456Z,10.00
2019-04-03T06:25:30.717Z,8.17
2019-04-03T06:28:09.179Z,9.30
2019-04-03T06:30:42.299Z,8.63
2019-04-03T06:33:14.332Z,8.27
2019-04-03T06:35:45.361Z,8.17
2019-04-03T06:38:37.327Z,8.57
2019-04-03T06:41:08.789Z,8.50
2019-04-03T06:43:38.471Z,7.60
2019-04-03T06:46:10.424Z,8.60
2019-04-03T06:48:40.518Z,9.30
2019-04-03T06:51:12.117Z,9.53
2019-04-03T06:53:42.437Z,10.30
2019-04-03T06:56:13.638Z,8.53
2019-04-03T06:58:45.977Z,7.40
2019-04-03T07:01:35.411Z,7.80
2019-04-03T07:04:06.454Z,8.53
2019-04-03T07:06:38.101Z,8.10
2019-04-03T07:09:21.026Z,8.03
2019-04-03T07:11:46.625Z,9.53
2019-04-03T07:14:21.759Z,10.23
2019-04-03T07:16:52.795Z,9.77
2019-04-03T07:19:23.126Z,9.90
2019-04-03T07:21:55.201Z,11.00
2019-04-03T07:24:26.451Z,8.50
2019-04-03T07:26:58.492Z,10.70
2019-04-03T07:29:28.611Z,10.70
2019-04-03T07:31:59.394Z,10.60
2019-04-03T07:34:29.362Z,10.57
2019-04-03T07:37:02.451Z,9.10
2019-04-03T07:39:32.690Z,9.83
2019-04-03T07:42:04.850Z,10.67
2019-04-03T07:44:37.599Z,9.50
2019-04-03T07:47:17.472Z,10.10
2019-04-03T07:49:48.507Z,9.57
2019-04-03T07:52:18.558Z,9.60
2019-04-03T07:54:48.419Z,9.03
2019-04-03T07:57:18.344Z,9.10
2019-04-03T07:59:51.639Z,8.03
2019-04-03T08:02:22.675Z,7.40
2019-04-03T08:04:54.197Z,7.33
2019-04-03T08:07:26.088Z,8.50
2019-04-03T08:09:58.886Z,8.60
2019-04-03T08:12:36.270Z,8.57
2019-04-03T08:15:09.260Z,8.63
2019-04-03T08:17:39.193Z,8.20
2019-04-03T08:20:09.894Z,8.00
2019-04-03T08:22:46.272Z,7.70
2019-04-03T08:25:20.951Z,8.30
2019-04-03T08:27:56.715Z,7.73
2019-04-03T08:30:27.814Z,7.80
2019-04-03T08:32:57.900Z,8.93
2019-04-03T08:35:27.992Z,6.97
2019-04-03T08:38:00.093Z,8.07
2019-04-03T08:40:30.207Z,8.53
2019-04-03T08:43:01.426Z,8.00
2019-04-03T08:45:42.771Z,7.97
2019-04-03T08:48:20.067Z,8.07
2019-04-03T08:51:03.008Z,7.80
2019-04-03T08:53:33.061Z,7.30
2019-04-03T08:56:04.504Z,8.20
2019-04-03T08:58:37.587Z,6.70
2019-04-03T09:01:11.129Z,6.50
2019-04-03T09:03:41.157Z,6.80
2019-04-03T09:06:11.367Z,7.50
2019-04-03T09:08:41.155Z,6.73
2019-04-03T09:11:10.888Z,7.00
2019-04-03T09:13:40.579Z,7.70
2019-04-03T09:16:11.034Z,8.73
2019-04-03T09:18:41.615Z,7.50
2019-04-03T09:21:14.879Z,6.77
2019-04-03T09:23:44.857Z,6.23
2019-04-03T09:26:14.956Z,7.00
2019-04-03T09:28:45.067Z,6.37
2019-04-03T09:31:18.623Z,5.37
2019-04-03T09:33:47.145Z,6.43
2019-04-03T09:36:17.215Z,5.93
2019-04-03T09:38:47.217Z,6.40
2019-04-03T09:41:18.521Z,5.93
2019-04-03T09:43:48.987Z,5.80
2019-04-03T09:46:19.307Z,6.13
2019-04-03T09:48:49.163Z,6.30
2019-04-03T09:51:21.905Z,6.37
2019-04-03T09:53:50.925Z,6.83
2019-04-03T09:56:21.025Z,6.97
2019-04-03T09:58:51.136Z,6.23
2019-04-03T10:01:21.237Z,6.13
2019-04-03T10:03:53.894Z,6.23
2019-04-03T10:06:23.126Z,6.13
2019-04-03T10:08:52.995Z,6.10
2019-04-03T10:11:25.763Z,7.40
2019-04-03T10:13:57.778Z,6.87
2019-04-03T10:16:27.527Z,6.40
2019-04-03T10:18:57.926Z,6.20
2019-04-03T10:21:28.003Z,7.20
2019-04-03T10:24:00.345Z,6.00
2019-04-03T10:26:31.858Z,6.00
2019-04-03T10:29:03.851Z,6.10
2019-04-03T10:31:34.955Z,6.60
2019-04-03T10:34:04.949Z,7.17
2019-04-03T10:36:43.840Z,6.73
2019-04-03T10:39:14.904Z,5.80
2019-04-03T10:41:45.016Z,6.47
2019-04-03T10:44:19.493Z,8.20
2019-04-03T10:46:50.787Z,6.50
2019-04-03T10:49:20.871Z,7.80
2019-04-03T10:52:00.077Z,6.37
2019-04-03T10:54:29.937Z,7.10
2019-04-03T10:57:01.200Z,7.40
2019-04-03T10:59:37.584Z,7.37
2019-04-03T11:02:07.692Z,6.70
2019-04-03T11:04:39.764Z,7.30
2019-04-03T11:07:21.979Z,6.80
2019-04-03T11:09:52.135Z,7.47
2019-04-03T11:12:25.253Z,7.63
2019-04-03T11:14:55.343Z,8.20
2019-04-03T11:17:27.475Z,7.20
2019-04-03T11:19:57.421Z,6.47
2019-04-03T11:22:40.789Z,7.07
2019-04-03T11:25:09.290Z,7.73
2019-04-03T11:27:43.392Z,7.70
2019-04-03T11:30:18.149Z,7.47
2019-04-03T11:32:47.045Z,7.70
2019-04-03T11:35:17.312Z,8.17
2019-04-03T11:37:48.727Z,7.47
2019-04-03T11:40:24.716Z,8.10
2019-04-03T11:43:04.226Z,6.83
2019-04-03T11:45:34.335Z,8.30
2019-04-03T11:48:04.999Z,7.10
2019-04-03T11:50:34.955Z,6.70
2019-04-03T11:53:07.038Z,7.00
2019-04-03T11:55:36.757Z,7.30
2019-04-03T11:58:09.691Z,6.80
2019-04-03T12:00:44.213Z,6.70
2019-04-03T12:03:14.355Z,7.10
2019-04-03T12:05:47.155Z,7.57
2019-04-03T12:08:16.243Z,6.20
2019-04-03T12:10:46.420Z,6.30
2019-04-03T12:13:16.473Z,7.63
2019-04-03T12:15:46.919Z,6.50
2019-04-03T12:18:17.312Z,6.83
2019-04-03T12:20:51.259Z,6.77
2019-04-03T12:23:21.348Z,7.40
2019-04-03T12:26:02.731Z,8.50
2019-04-03T12:28:35.254Z,8.30
2019-04-03T12:31:05.364Z,8.37
2019-04-03T12:33:35.391Z,9.70
2019-04-03T12:36:06.841Z,9.90
2019-04-03T12:38:37.638Z,8.00
2019-04-03T12:41:10.840Z,8.10
2019-04-03T12:43:41.949Z,8.17
2019-04-03T12:46:12.053Z,9.20
2019-04-03T12:48:42.315Z,8.73
2019-04-03T12:51:20.355Z,7.80
2019-04-03T12:53:51.066Z,6.97
2019-04-03T12:56:23.923Z,6.63
2019-04-03T12:58:54.339Z,7.77
2019-04-03T13:01:24.181Z,6.50
2019-04-03T13:03:56.045Z,6.80
2019-04-03T13:06:29.339Z,8.60
2019-04-03T13:08:59.143Z,7.50
2019-04-03T13:11:31.610Z,9.10
2019-04-03T13:14:01.537Z,9.17
2019-04-03T13:16:31.625Z,8.87
2019-04-03T13:19:01.727Z,8.53
2019-04-03T13:21:31.826Z,9.23
2019-04-03T13:24:03.121Z,8.93
2019-04-03T13:26:33.109Z,11.10
2019-04-03T13:29:06.975Z,9.40
2019-04-03T13:31:36.270Z,9.67
2019-04-03T13:34:06.761Z,9.83
2019-04-03T13:36:41.279Z,10.70
2019-04-03T13:39:12.006Z,10.70
2019-04-03T13:41:43.159Z,10.20
2019-04-03T13:44:25.979Z,10.20
2019-04-03T13:46:56.299Z,10.30
2019-04-03T13:49:29.305Z,11.20
2019-04-03T13:52:02.110Z,10.60
2019-04-03T13:54:29.324Z,11.47
2019-04-03T13:57:02.298Z,12.80
2019-04-03T13:59:32.419Z,10.57
2019-04-03T14:02:02.520Z,11.47
2019-04-03T14:04:38.475Z,11.70
2019-04-03T14:07:12.311Z,12.60
2019-04-03T14:09:42.499Z,11.27
2019-04-03T14:12:12.335Z,11.63
2019-04-03T14:14:46.807Z,10.30
2019-04-03T14:17:16.178Z,7.90
2019-04-03T14:19:51.501Z,8.00
2019-04-03T14:22:20.825Z,8.17
2019-04-03T14:24:52.688Z,7.87
2019-04-03T14:27:26.696Z,7.00
2019-04-03T14:29:58.463Z,7.60
2019-04-03T14:32:29.822Z,7.87
2019-04-03T14:35:06.556Z,6.87
2019-04-03T14:37:31.783Z,7.40
2019-04-03T14:40:01.540Z,7.73
2019-04-03T14:42:37.297Z,7.30
2019-04-03T14:45:08.968Z,7.57
2019-04-03T14:47:39.593Z,6.57
2019-04-03T14:50:10.300Z,8.07
2019-04-03T14:52:40.357Z,7.93
2019-04-03T14:55:21.283Z,9.23
2019-04-03T14:57:43.572Z,9.83
2019-04-03T15:00:27.992Z,8.70
2019-04-03T15:02:49.198Z,8.43
2019-04-03T15:05:28.664Z,7.87
2019-04-03T15:07:58.823Z,9.07
2019-04-03T15:10:30.644Z,7.60
2019-04-03T15:13:03.328Z,8.00
2019-04-03T15:15:42.654Z,7.40
2019-04-03T15:18:13.235Z,6.80
2019-04-03T15:20:44.048Z,7.53
2019-04-03T15:23:14.078Z,7.13
2019-04-03T15:25:47.543Z,7.90
2019-04-03T15:28:17.564Z,7.33
2019-04-03T15:31:07.737Z,7.50
2019-04-03T15:33:45.867Z,6.80
2019-04-03T15:36:21.785Z,6.90
2019-04-03T15:38:53.603Z,5.93
2019-04-03T15:41:24.267Z,6.70
2019-04-03T15:43:57.916Z,7.17
2019-04-03T15:46:29.224Z,8.60
2019-04-03T15:48:59.259Z,7.47
2019-04-03T15:51:29.780Z,7.13
2019-04-03T15:54:00.398Z,8.20
2019-04-03T15:56:31.139Z,6.87
2019-04-03T15:59:01.576Z,8.10
2019-04-03T16:01:32.447Z,7.77
2019-04-03T16:04:02.165Z,7.50
2019-04-03T16:06:35.927Z,7.43
2019-04-03T16:09:08.116Z,6.80
2019-04-03T16:11:42.848Z,6.73
2019-04-03T16:14:12.840Z,7.33
2019-04-03T16:16:42.749Z,6.70
2019-04-03T16:19:12.669Z,7.87
2019-04-03T16:21:44.857Z,6.90
2019-04-03T16:24:15.967Z,6.90
2019-04-03T16:26:47.113Z,8.00
2019-04-03T16:29:17.503Z,7.70
2019-04-03T16:31:54.116Z,7.23
2019-04-03T16:34:30.157Z,5.90
2019-04-03T16:37:00.277Z,7.57
2019-04-03T16:39:32.511Z,8.63
2019-04-03T16:42:03.771Z,6.73
2019-04-03T16:44:34.571Z,7.97
2019-04-03T16:47:12.937Z,7.20
2019-04-03T16:49:44.598Z,7.93
2019-04-03T16:52:15.275Z,7.03
2019-04-03T16:54:51.264Z,8.03
2019-04-03T16:57:22.744Z,6.53
2019-04-03T17:00:02.478Z,7.43
2019-04-03T17:02:33.624Z,8.80
2019-04-03T17:05:11.677Z,7.53
2019-04-03T17:07:46.369Z,9.13
2019-04-03T17:10:16.549Z,8.70
2019-04-03T17:12:49.585Z,8.23
2019-04-03T17:15:20.131Z,7.43
2019-04-03T17:17:51.397Z,8.53
2019-04-03T17:20:22.628Z,8.23
2019-04-03T17:22:52.974Z,8.93
2019-04-03T17:25:23.316Z,7.37
2019-04-03T17:27:58.072Z,8.67
2019-04-03T17:30:28.821Z,8.33
2019-04-03T17:33:01.786Z,7.83
2019-04-03T17:35:31.439Z,7.57
2019-04-03T17:38:01.467Z,8.33
2019-04-03T17:40:31.473Z,7.40
2019-04-03T17:43:02.855Z,8.03
2019-04-03T17:45:33.896Z,7.70
2019-04-03T17:48:05.731Z,6.80
2019-04-03T17:50:37.654Z,7.37
2019-04-03T17:53:09.085Z,7.70
2019-04-03T17:55:41.234Z,7.00
2019-04-03T17:58:16.855Z,7.40
2019-04-03T18:00:52.666Z,7.70
2019-04-03T18:03:22.643Z,7.70
2019-04-03T18:05:52.496Z,7.77
2019-04-03T18:08:23.407Z,7.80
2019-04-03T18:10:53.239Z,7.73
2019-04-03T18:13:23.485Z,7.30
2019-04-03T18:15:54.748Z,8.13
2019-04-03T18:18:25.720Z,8.40
2019-04-03T18:20:55.479Z,7.93
2019-04-03T18:23:32.499Z,7.53
2019-04-03T18:26:02.344Z,7.07
2019-04-03T18:28:32.027Z,7.10
2019-04-03T18:31:01.720Z,7.40
2019-04-03T18:33:31.415Z,7.30
2019-04-03T18:36:01.107Z,7.87
2019-04-03T18:38:30.815Z,6.90
2019-04-03T18:41:00.563Z,8.27
2019-04-03T18:43:30.253Z,8.27
2019-04-03T18:46:00.249Z,8.47
2019-04-03T18:48:30.143Z,7.90
2019-04-03T18:50:59.836Z,7.57
2019-04-03T18:53:29.551Z,7.03
2019-04-03T18:55:59.256Z,7.90
2019-04-03T18:58:31.215Z,8.40
2019-04-03T19:01:02.374Z,7.97
2019-04-03T19:03:32.451Z,6.80
2019-04-03T19:06:03.321Z,6.70
2019-04-03T19:08:33.270Z,6.73
2019-04-03T19:11:07.635Z,8.27
2019-04-03T19:13:34.735Z,7.60
2019-04-03T19:16:06.333Z,7.83
2019-04-03T19:18:35.985Z,6.57
2019-04-03T19:21:05.731Z,7.50
2019-04-03T19:23:35.732Z,6.70
2019-04-03T19:26:08.633Z,7.37
2019-04-03T19:28:38.778Z,6.73
2019-04-03T19:31:09.354Z,5.07
2019-04-03T19:33:40.202Z,4.50
2019-04-03T19:36:09.932Z,4.67
2019-04-03T19:38:39.611Z,6.70
2019-04-03T19:41:11.575Z,6.37
2019-04-03T19:43:40.745Z,12.30
2019-04-03T19:46:10.702Z,5.30
2019-04-03T19:48:41.516Z,4.50
2019-04-03T19:51:11.237Z,4.47
2019-04-03T19:53:40.956Z,4.63
2019-04-03T19:56:10.636Z,4.60
2019-04-03T19:58:40.348Z,4.10
2019-04-03T20:01:10.064Z,3.97
2019-04-03T20:03:40.212Z,4.03
2019-04-03T20:06:10.064Z,3.87
2019-04-03T20:08:41.812Z,3.90
2019-04-03T20:11:11.506Z,3.80
2019-04-03T20:13:41.202Z,4.30
2019-04-03T20:16:10.878Z,3.90
2019-04-03T20:18:40.572Z,4.00
2019-04-03T20:21:11.215Z,3.17
2019-04-03T20:23:41.863Z,3.20
2019-04-03T20:26:16.313Z,3.00
2019-04-03T20:28:44.808Z,2.70
2019-04-03T20:31:14.767Z,3.30
2019-04-03T20:33:44.671Z,2.07
2019-04-03T20:36:16.641Z,3.30
2019-04-03T20:38:46.111Z,3.47
2019-04-03T20:41:16.876Z,3.00
2019-04-03T20:43:47.524Z,3.57
2019-04-03T20:46:39.484Z,2.50
2019-04-03T20:49:16.389Z,3.40
2019-04-03T20:51:49.501Z,3.30
2019-04-03T20:54:21.393Z,3.27
2019-04-03T20:56:57.595Z,2.80
2019-04-03T20:59:22.124Z,3.20
2019-04-03T21:01:52.088Z,2.27
2019-04-03T21:04:24.127Z,2.40
2019-04-03T21:06:53.951Z,2.13
2019-04-03T21:09:23.647Z,1.80
2019-04-03T21:11:53.376Z,1.87
2019-04-03T21:14:32.176Z,1.50
2019-04-03T21:17:01.869Z,1.70
2019-04-03T21:19:32.473Z,1.60
2019-04-03T21:22:02.168Z,1.50
2019-04-03T21:24:35.393Z,1.67
2019-04-03T21:27:08.825Z,1.13
2019-04-03T21:29:39.781Z,1.40
2019-04-03T21:32:13.244Z,1.23
2019-04-03T21:34:43.410Z,1.33
2019-04-03T21:37:14.099Z,1.17
2019-04-03T21:39:44.454Z,1.30
2019-04-03T21:42:14.256Z,1.33
2019-04-03T21:44:44.016Z,1.30
2019-04-03T21:47:13.728Z,1.50
2019-04-03T21:49:43.431Z,1.47
2019-04-03T21:52:13.388Z,1.23
2019-04-03T21:54:44.196Z,1.53
2019-04-03T21:57:14.148Z,1.00
2019-04-03T21:59:44.230Z,1.53
2019-04-03T22:02:16.269Z,1.10
2019-04-03T22:04:46.496Z,1.17
2019-04-03T22:07:16.205Z,1.53
2019-04-03T22:09:46.172Z,1.37
2019-04-03T22:12:15.995Z,1.13
2019-04-03T22:14:45.748Z,1.27
2019-04-03T22:17:15.441Z,1.40
2019-04-03T22:19:45.145Z,1.43
2019-04-03T22:22:15.784Z,1.00
2019-04-03T22:24:45.768Z,1.30
2019-04-03T22:27:15.628Z,1.70
2019-04-03T22:29:45.572Z,1.47
2019-04-03T22:32:15.400Z,1.30
2019-04-03T22:34:46.080Z,1.23
2019-04-03T22:37:16.037Z,1.40
2019-04-03T22:40:05.788Z,1.23
2019-04-03T22:42:35.483Z,1.30
2019-04-03T22:45:07.524Z,1.50
2019-04-03T22:47:37.682Z,1.55
2019-04-03T22:50:08.076Z,1.57
2019-04-03T22:52:39.932Z,1.87
2019-04-03T22:55:11.061Z,1.70
2019-04-03T22:57:40.896Z,1.60
2019-04-03T23:00:10.678Z,1.30
2019-04-03T23:02:41.347Z,1.60
2019-04-03T23:05:11.988Z,2.17
2019-04-03T23:07:41.945Z,2.00
2019-04-03T23:10:12.209Z,1.98
2019-04-03T23:12:42.381Z,1.62
2019-04-03T23:15:13.351Z,1.70
2019-04-03T23:17:44.775Z,2.42
2019-04-03T23:20:14.768Z,2.12
2019-04-03T23:22:44.936Z,1.92
2019-04-03T23:25:15.716Z,2.08
2019-04-03T23:27:50.840Z,2.00
2019-04-03T23:30:20.683Z,2.33
2019-04-03T23:32:51.621Z,2.20
2019-04-03T23:35:23.704Z,1.80
2019-04-03T23:37:55.806Z,1.60
2019-04-03T23:40:26.051Z,1.87
2019-04-03T23:42:56.237Z,1.92
2019-04-03T23:45:27.704Z,2.30
2019-04-03T23:47:59.364Z,2.35
2019-04-03T23:50:29.436Z,2.22
2019-04-03T23:53:00.975Z,2.30
2019-04-03T23:55:37.392Z,2.63
2019-04-03T23:58:09.003Z,2.10
